Time,TemperatureF,DewpointF,PressureIn,WindDirection,WindDirectionDegrees,WindSpeedMPH,WindSpeedGustMPH,Humidity,HourlyPrecipIn,Conditions,Clouds,dailyrainin,SoftwareType,DateUTC
2013-12-06 00:12:00,73.1,71.0,29.95,SSE,160,2.0,6.0,92,0.00,,,0.00,weatherlink.com 1.10,2013-12-06 06:12:00,
2013-12-06 00:27:00,73.1,71.0,29.94,SSW,193,2.0,6.0,92,0.00,,,0.00,weatherlink.com 1.10,2013-12-06 06:27:00,
2013-12-06 00:42:00,72.1,66.0,29.94,NW,321,0.0,2.0,82,0.00,,,0.00,weatherlink.com 1.10,2013-12-06 06:42:00,
2013-12-06 00:57:00,66.1,62.0,29.94,North,349,2.0,5.0,86,0.00,,,0.00,weatherlink.com 1.10,2013-12-06 06:57:00,
2013-12-06 01:12:00,62.8,59.0,29.94,NNW,336,3.0,5.0,88,0.00,,,0.00,weatherlink.com 1.10,2013-12-06 07:12:00,
2013-12-06 01:27:00,61.8,59.0,29.94,North,352,1.0,3.0,89,0.00,,,0.00,weatherlink.com 1.10,2013-12-06 07:27:00,
2013-12-06 01:42:00,60.8,58.0,29.93,NW,322,0.0,3.0,90,0.00,,,0.00,weatherlink.com 1.10,2013-12-06 07:42:00,
2013-12-06 01:57:00,59.8,57.0,29.93,West,279,2.0,4.0,91,0.00,,,0.00,weatherlink.com 1.10,2013-12-06 07:57:00,
2013-12-06 02:12:00,59.2,57.0,29.93,WNW,290,2.0,5.0,92,0.00,,,0.00,weatherlink.com 1.10,2013-12-06 08:12:00,
2013-12-06 02:27:00,58.4,56.0,29.94,ENE,63,4.0,4.0,92,0.00,,,0.00,weatherlink.com 1.10,2013-12-06 08:27:00,
2013-12-06 02:42:00,56.7,55.0,29.95,North,360,4.0,7.0,92,0.00,,,0.00,weatherlink.com 1.10,2013-12-06 08:42:00,
2013-12-06 02:57:00,54.9,53.0,29.95,NW,324,0.0,4.0,93,0.00,,,0.00,weatherlink.com 1.10,2013-12-06 08:57:00,
2013-12-06 03:13:00,53.6,52.0,29.95,North,353,1.0,7.0,93,0.00,,,0.00,weatherlink.com 1.10,2013-12-06 09:13:00,
2013-12-06 03:28:00,52.9,51.0,29.94,NW,307,1.0,3.0,94,0.00,,,0.00,weatherlink.com 1.10,2013-12-06 09:28:00,
2013-12-06 03:43:00,52.6,51.0,29.95,ENE,72,2.0,3.0,95,0.01,,,0.01,weatherlink.com 1.10,2013-12-06 09:43:00,
2013-12-06 03:58:00,52.3,51.0,29.95,East,96,0.0,3.0,95,0.01,,,0.01,weatherlink.com 1.10,2013-12-06 09:58:00,
2013-12-06 04:13:00,51.8,51.0,29.94,North,359,0.0,2.0,95,0.01,,,0.01,weatherlink.com 1.10,2013-12-06 10:13:00,
2013-12-06 04:28:00,51.6,50.0,29.95,NNW,335,0.0,3.0,95,0.01,,,0.01,weatherlink.com 1.10,2013-12-06 10:28:00,
2013-12-06 04:43:00,51.4,50.0,29.95,ENE,65,0.0,4.0,96,0.00,,,0.01,weatherlink.com 1.10,2013-12-06 10:43:00,
2013-12-06 04:58:00,51.1,50.0,29.96,West,273,0.0,3.0,96,0.00,,,0.01,weatherlink.com 1.10,2013-12-06 10:58:00,
2013-12-06 05:13:00,51.0,50.0,29.96,WNW,295,0.0,2.0,96,0.00,,,0.01,weatherlink.com 1.10,2013-12-06 11:13:00,
2013-12-06 05:28:00,50.7,50.0,29.97,North,355,1.0,4.0,96,0.00,,,0.01,weatherlink.com 1.10,2013-12-06 11:28:00,
2013-12-06 05:43:00,50.7,50.0,29.97,NE,56,0.0,5.0,96,0.00,,,0.01,weatherlink.com 1.10,2013-12-06 11:43:00,
2013-12-06 05:58:00,50.1,49.0,29.97,NNE,32,0.0,2.0,96,0.00,,,0.01,weatherlink.com 1.10,2013-12-06 11:58:00,
2013-12-06 06:13:00,49.8,49.0,29.98,NNW,342,0.0,1.0,96,0.06,,,0.07,weatherlink.com 1.10,2013-12-06 12:13:00,
2013-12-06 06:28:00,49.9,49.0,29.99,NNE,23,0.0,2.0,96,0.06,,,0.07,weatherlink.com 1.10,2013-12-06 12:28:00,
2013-12-06 06:43:00,49.9,49.0,29.99,North,6,0.0,2.0,96,0.06,,,0.07,weatherlink.com 1.10,2013-12-06 12:43:00,
2013-12-06 06:58:00,49.6,49.0,29.99,North,359,0.0,1.0,96,0.06,,,0.07,weatherlink.com 1.10,2013-12-06 12:58:00,
2013-12-06 07:13:00,49.6,49.0,30.00,WNW,293,0.0,2.0,96,0.00,,,0.07,weatherlink.com 1.10,2013-12-06 13:13:00,
2013-12-06 07:28:00,49.4,48.0,30.00,NNE,13,1.0,2.0,96,0.00,,,0.07,weatherlink.com 1.10,2013-12-06 13:28:00,
2013-12-06 07:43:00,49.0,48.0,30.00,ENE,72,1.0,3.0,96,0.00,,,0.07,weatherlink.com 1.10,2013-12-06 13:43:00,
2013-12-06 07:58:00,48.9,48.0,30.00,SE,142,0.0,2.0,96,0.00,,,0.07,weatherlink.com 1.10,2013-12-06 13:58:00,
2013-12-06 08:13:00,48.9,48.0,30.00,North,356,0.0,2.0,97,0.00,,,0.07,weatherlink.com 1.10,2013-12-06 14:13:00,
2013-12-06 08:28:00,49.4,49.0,30.00,NNE,13,0.0,1.0,97,0.00,,,0.07,weatherlink.com 1.10,2013-12-06 14:28:00,
2013-12-06 08:43:00,49.6,49.0,30.00,NE,53,0.0,2.0,97,0.00,,,0.07,weatherlink.com 1.10,2013-12-06 14:43:00,
2013-12-06 08:58:00,50.4,50.0,30.01,West,276,0.0,1.0,97,0.00,,,0.07,weatherlink.com 1.10,2013-12-06 14:58:00,
2013-12-06 09:13:00,51.0,50.0,30.02,WNW,291,0.0,1.0,97,0.00,,,0.07,weatherlink.com 1.10,2013-12-06 15:13:00,
2013-12-06 09:28:00,51.2,50.0,30.02,North,1,1.0,3.0,97,0.00,,,0.07,weatherlink.com 1.10,2013-12-06 15:28:00,
2013-12-06 09:43:00,51.4,51.0,30.03,WNW,296,0.0,4.0,97,0.00,,,0.07,weatherlink.com 1.10,2013-12-06 15:43:00,
2013-12-06 09:58:00,51.3,51.0,30.03,WNW,288,0.0,2.0,97,0.00,,,0.07,weatherlink.com 1.10,2013-12-06 15:58:00,
2013-12-06 10:13:00,51.3,51.0,30.03,NNW,331,0.0,3.0,97,0.00,,,0.07,weatherlink.com 1.10,2013-12-06 16:13:00,
2013-12-06 10:28:00,51.3,51.0,30.04,NNE,16,2.0,5.0,97,0.00,,,0.07,weatherlink.com 1.10,2013-12-06 16:28:00,
2013-12-06 10:43:00,51.3,50.0,30.04,West,274,2.0,3.0,96,0.00,,,0.07,weatherlink.com 1.10,2013-12-06 16:43:00,
2013-12-06 10:58:00,51.2,50.0,30.04,West,262,0.0,4.0,96,0.00,,,0.07,weatherlink.com 1.10,2013-12-06 16:58:00,
2013-12-06 11:13:00,51.2,50.0,30.03,ENE,65,1.0,3.0,96,0.00,,,0.07,weatherlink.com 1.10,2013-12-06 17:13:00,
2013-12-06 11:28:00,51.5,50.0,30.03,NW,311,0.0,3.0,96,0.00,,,0.07,weatherlink.com 1.10,2013-12-06 17:28:00,
2013-12-06 11:43:00,51.4,50.0,30.02,NNW,336,1.0,3.0,96,0.00,,,0.07,weatherlink.com 1.10,2013-12-06 17:43:00,
2013-12-06 11:58:00,51.2,50.0,30.01,NE,48,1.0,3.0,96,0.00,,,0.07,weatherlink.com 1.10,2013-12-06 17:58:00,
2013-12-06 12:14:00,51.9,51.0,30.01,West,276,1.0,3.0,96,0.00,,,0.07,weatherlink.com 1.10,2013-12-06 18:14:00,
2013-12-06 12:28:00,51.9,51.0,30.00,West,278,1.0,4.0,96,0.00,,,0.07,weatherlink.com 1.10,2013-12-06 18:28:00,
2013-12-06 12:43:00,52.2,51.0,30.01,West,273,1.0,3.0,96,0.00,,,0.07,weatherlink.com 1.10,2013-12-06 18:43:00,
2013-12-06 12:58:00,52.0,51.0,30.01,NW,316,2.0,4.0,95,0.00,,,0.07,weatherlink.com 1.10,2013-12-06 18:58:00,
2013-12-06 13:13:00,51.0,50.0,30.02,WNW,290,2.0,7.0,95,0.00,,,0.07,weatherlink.com 1.10,2013-12-06 19:13:00,
2013-12-06 13:28:00,49.4,48.0,30.02,NE,41,1.0,6.0,94,0.00,,,0.07,weatherlink.com 1.10,2013-12-06 19:28:00,
2013-12-06 13:44:00,47.6,46.0,30.03,North,355,6.0,6.0,94,0.01,,,0.08,weatherlink.com 1.10,2013-12-06 19:44:00,
2013-12-06 13:59:00,46.3,45.0,30.04,NW,308,2.0,8.0,95,0.01,,,0.08,weatherlink.com 1.10,2013-12-06 19:59:00,
2013-12-06 14:14:00,45.9,45.0,30.06,North,354,3.0,7.0,95,0.03,,,0.10,weatherlink.com 1.10,2013-12-06 20:14:00,
2013-12-06 14:29:00,45.1,44.0,30.06,WNW,300,3.0,7.0,95,0.04,,,0.11,weatherlink.com 1.10,2013-12-06 20:29:00,
2013-12-06 14:44:00,44.5,43.0,30.08,West,277,1.0,6.0,95,0.04,,,0.12,weatherlink.com 1.10,2013-12-06 20:44:00,
2013-12-06 14:59:00,44.0,43.0,30.08,WNW,283,0.0,9.0,95,0.06,,,0.14,weatherlink.com 1.10,2013-12-06 20:59:00,
2013-12-06 15:14:00,43.5,42.0,30.09,East,82,2.0,3.0,95,0.05,,,0.15,weatherlink.com 1.10,2013-12-06 21:14:00,
2013-12-06 15:29:00,42.4,41.0,30.10,NNW,329,3.0,11.0,94,0.04,,,0.15,weatherlink.com 1.10,2013-12-06 21:29:00,
2013-12-06 15:44:00,41.7,40.0,30.11,NNW,345,2.0,6.0,94,0.03,,,0.15,weatherlink.com 1.10,2013-12-06 21:44:00,
2013-12-06 15:59:00,41.1,40.0,30.12,North,352,5.0,8.0,95,0.00,,,0.15,weatherlink.com 1.10,2013-12-06 21:59:00,
2013-12-06 16:14:00,40.7,39.0,30.13,NNW,343,2.0,6.0,95,0.00,,,0.15,weatherlink.com 1.10,2013-12-06 22:14:00,
2013-12-06 16:29:00,40.2,39.0,30.13,NNW,345,1.0,7.0,95,0.00,,,0.15,weatherlink.com 1.10,2013-12-06 22:29:00,
2013-12-06 16:44:00,39.8,39.0,30.13,WNW,293,2.0,7.0,95,0.00,,,0.15,weatherlink.com 1.10,2013-12-06 22:44:00,
2013-12-06 16:59:00,40.1,39.0,30.13,NNW,329,0.0,4.0,96,0.00,,,0.15,weatherlink.com 1.10,2013-12-06 22:59:00,
2013-12-06 17:14:00,40.2,39.0,30.14,WNW,283,0.0,4.0,96,0.00,,,0.15,weatherlink.com 1.10,2013-12-06 23:14:00,
2013-12-06 17:29:00,40.3,39.0,30.14,North,11,3.0,3.0,96,0.00,,,0.15,weatherlink.com 1.10,2013-12-06 23:29:00,
2013-12-06 17:44:00,39.9,39.0,30.15,WNW,300,2.0,7.0,96,0.00,,,0.15,weatherlink.com 1.10,2013-12-06 23:44:00,
2013-12-06 17:59:00,39.7,39.0,30.16,NNE,19,1.0,7.0,96,0.07,,,0.22,weatherlink.com 1.10,2013-12-06 23:59:00,
2013-12-06 18:14:00,39.2,38.0,30.17,NW,312,2.0,6.0,95,0.13,,,0.28,weatherlink.com 1.10,2013-12-07 00:14:00,
2013-12-06 18:29:00,38.8,38.0,30.17,WNW,287,1.0,8.0,95,0.13,,,0.28,weatherlink.com 1.10,2013-12-07 00:29:00,
2013-12-06 18:45:00,38.5,37.0,30.19,West,278,1.0,5.0,95,0.13,,,0.28,weatherlink.com 1.10,2013-12-07 00:45:00,
2013-12-06 19:00:00,38.3,37.0,30.20,North,354,0.0,7.0,95,0.08,,,0.30,weatherlink.com 1.10,2013-12-07 01:00:00,
2013-12-06 19:15:00,38.0,37.0,30.20,ENE,73,1.0,6.0,95,0.02,,,0.30,weatherlink.com 1.10,2013-12-07 01:15:00,
2013-12-06 19:31:00,37.5,36.0,30.20,NW,311,0.0,7.0,95,0.02,,,0.30,weatherlink.com 1.10,2013-12-07 01:31:00,
2013-12-06 19:45:00,37.5,36.0,30.20,North,358,0.0,5.0,95,0.02,,,0.30,weatherlink.com 1.10,2013-12-07 01:45:00,
2013-12-06 20:00:00,37.4,36.0,30.21,NNE,32,1.0,6.0,95,0.00,,,0.30,weatherlink.com 1.10,2013-12-07 02:00:00,
2013-12-06 20:15:00,37.1,36.0,30.23,NW,319,0.0,6.0,95,0.00,,,0.30,weatherlink.com 1.10,2013-12-07 02:15:00,
2013-12-06 20:30:00,37.0,36.0,30.23,NW,322,1.0,7.0,95,0.00,,,0.30,weatherlink.com 1.10,2013-12-07 02:30:00,
2013-12-06 20:45:00,36.9,36.0,30.23,NE,38,3.0,5.0,95,0.00,,,0.30,weatherlink.com 1.10,2013-12-07 02:45:00,
2013-12-06 21:00:00,36.8,36.0,30.23,NNW,333,0.0,5.0,95,0.00,,,0.30,weatherlink.com 1.10,2013-12-07 03:00:00,
2013-12-06 21:15:00,36.7,35.0,30.25,NNE,27,1.0,9.0,95,0.00,,,0.30,weatherlink.com 1.10,2013-12-07 03:15:00,
2013-12-06 21:30:00,36.4,35.0,30.26,NNE,15,0.0,9.0,95,0.00,,,0.30,weatherlink.com 1.10,2013-12-07 03:30:00,
2013-12-06 21:45:00,36.5,35.0,30.26,NNW,345,3.0,5.0,95,0.00,,,0.30,weatherlink.com 1.10,2013-12-07 03:45:00,
2013-12-06 22:00:00,36.4,35.0,30.27,North,1,3.0,6.0,95,0.00,,,0.30,weatherlink.com 1.10,2013-12-07 04:00:00,
2013-12-06 22:15:00,36.3,35.0,30.28,NE,41,1.0,6.0,95,0.00,,,0.30,weatherlink.com 1.10,2013-12-07 04:15:00,
2013-12-06 22:30:00,36.0,35.0,30.28,ENE,68,6.0,8.0,95,0.00,,,0.30,weatherlink.com 1.10,2013-12-07 04:30:00,
2013-12-06 22:45:00,35.7,34.0,30.28,NNW,333,1.0,7.0,95,0.00,,,0.30,weatherlink.com 1.10,2013-12-07 04:45:00,
2013-12-06 23:00:00,35.6,34.0,30.28,NNE,32,0.0,7.0,95,0.00,,,0.30,weatherlink.com 1.10,2013-12-07 05:00:00,
2013-12-06 23:15:00,35.5,34.0,30.28,NW,317,1.0,7.0,95,0.00,,,0.30,weatherlink.com 1.10,2013-12-07 05:15:00,
2013-12-06 23:30:00,35.6,34.0,30.29,NW,307,2.0,5.0,95,0.00,,,0.30,weatherlink.com 1.10,2013-12-07 05:30:00,
2013-12-06 23:45:00,35.6,34.0,30.28,NNE,20,2.0,6.0,95,0.00,,,0.30,weatherlink.com 1.10,2013-12-07 05:45:00,